sensor_id;sensor_type;location;lat;lon;timestamp;P1;durP1;ratioP1;P2;durP2;ratioP2
13743;SDS011;6943;52.368;9.966;2022-08-02T00:02:17;9.27;;;3.47;;
13743;SDS011;6943;52.368;9.966;2022-08-02T00:04:43;7.80;;;3.30;;
13743;SDS011;6943;52.368;9.966;2022-08-02T00:07:09;10.50;;;3.33;;
13743;SDS011;6943;52.368;9.966;2022-08-02T00:09:35;5.40;;;3.07;;
13743;SDS011;6943;52.368;9.966;2022-08-02T00:12:00;6.73;;;3.20;;
13743;SDS011;6943;52.368;9.966;2022-08-02T00:14:26;6.30;;;3.10;;
13743;SDS011;6943;52.368;9.966;2022-08-02T00:16:51;7.53;;;2.73;;
13743;SDS011;6943;52.368;9.966;2022-08-02T00:19:17;5.90;;;3.23;;
13743;SDS011;6943;52.368;9.966;2022-08-02T00:21:42;7.47;;;3.30;;
13743;SDS011;6943;52.368;9.966;2022-08-02T00:24:08;9.80;;;3.00;;
13743;SDS011;6943;52.368;9.966;2022-08-02T00:26:33;7.07;;;3.00;;
13743;SDS011;6943;52.368;9.966;2022-08-02T00:28:59;5.87;;;2.90;;
13743;SDS011;6943;52.368;9.966;2022-08-02T00:31:24;7.27;;;3.30;;
13743;SDS011;6943;52.368;9.966;2022-08-02T00:33:50;6.87;;;3.20;;
13743;SDS011;6943;52.368;9.966;2022-08-02T00:36:15;6.53;;;3.00;;
13743;SDS011;6943;52.368;9.966;2022-08-02T00:38:41;6.57;;;2.63;;
13743;SDS011;6943;52.368;9.966;2022-08-02T00:41:11;6.53;;;2.97;;
13743;SDS011;6943;52.368;9.966;2022-08-02T00:43:38;6.00;;;3.07;;
13743;SDS011;6943;52.368;9.966;2022-08-02T00:46:03;6.70;;;3.10;;
13743;SDS011;6943;52.368;9.966;2022-08-02T00:48:30;5.40;;;3.00;;
13743;SDS011;6943;52.368;9.966;2022-08-02T00:50:55;5.23;;;2.90;;
13743;SDS011;6943;52.368;9.966;2022-08-02T00:53:21;6.73;;;3.27;;
13743;SDS011;6943;52.368;9.966;2022-08-02T00:55:46;3.70;;;3.10;;
13743;SDS011;6943;52.368;9.966;2022-08-02T00:58:12;6.03;;;2.93;;
13743;SDS011;6943;52.368;9.966;2022-08-02T01:00:37;7.47;;;3.83;;
13743;SDS011;6943;52.368;9.966;2022-08-02T01:03:03;4.37;;;3.03;;
13743;SDS011;6943;52.368;9.966;2022-08-02T01:05:28;6.27;;;2.90;;
13743;SDS011;6943;52.368;9.966;2022-08-02T01:07:54;6.47;;;3.20;;
13743;SDS011;6943;52.368;9.966;2022-08-02T01:10:19;8.07;;;3.20;;
13743;SDS011;6943;52.368;9.966;2022-08-02T01:12:45;6.17;;;3.07;;
13743;SDS011;6943;52.368;9.966;2022-08-02T01:15:11;6.00;;;2.80;;
13743;SDS011;6943;52.368;9.966;2022-08-02T01:31:14;5.13;;;2.80;;
13743;SDS011;6943;52.368;9.966;2022-08-02T01:33:51;5.37;;;2.90;;
13743;SDS011;6943;52.368;9.966;2022-08-02T01:36:47;4.70;;;3.00;;
13743;SDS011;6943;52.368;9.966;2022-08-02T01:39:20;6.47;;;3.57;;
13743;SDS011;6943;52.368;9.966;2022-08-02T01:41:50;6.07;;;3.10;;
13743;SDS011;6943;52.368;9.966;2022-08-02T01:44:16;5.77;;;3.20;;
13743;SDS011;6943;52.368;9.966;2022-08-02T01:46:45;8.80;;;3.50;;
13743;SDS011;6943;52.368;9.966;2022-08-02T01:49:14;8.90;;;3.87;;
13743;SDS011;6943;52.368;9.966;2022-08-02T01:51:42;7.63;;;3.40;;
13743;SDS011;6943;52.368;9.966;2022-08-02T01:54:32;7.27;;;3.50;;
13743;SDS011;6943;52.368;9.966;2022-08-02T01:56:59;4.93;;;3.77;;
13743;SDS011;6943;52.368;9.966;2022-08-02T01:59:28;5.60;;;3.10;;
13743;SDS011;6943;52.368;9.966;2022-08-02T02:01:55;6.53;;;3.60;;
13743;SDS011;6943;52.368;9.966;2022-08-02T02:04:24;5.33;;;3.20;;
13743;SDS011;6943;52.368;9.966;2022-08-02T02:06:52;9.77;;;3.50;;
13743;SDS011;6943;52.368;9.966;2022-08-02T02:09:19;8.27;;;3.70;;
13743;SDS011;6943;52.368;9.966;2022-08-02T02:11:49;8.03;;;3.30;;
13743;SDS011;6943;52.368;9.966;2022-08-02T02:14:15;8.97;;;3.73;;
13743;SDS011;6943;52.368;9.966;2022-08-02T02:16:43;8.13;;;3.63;;
13743;SDS011;6943;52.368;9.966;2022-08-02T02:19:12;6.70;;;3.63;;
13743;SDS011;6943;52.368;9.966;2022-08-02T02:21:42;7.20;;;3.53;;
13743;SDS011;6943;52.368;9.966;2022-08-02T02:24:08;5.30;;;3.20;;
13743;SDS011;6943;52.368;9.966;2022-08-02T02:26:34;6.33;;;3.37;;
13743;SDS011;6943;52.368;9.966;2022-08-02T02:29:02;5.87;;;3.63;;
13743;SDS011;6943;52.368;9.966;2022-08-02T02:31:31;8.00;;;3.57;;
13743;SDS011;6943;52.368;9.966;2022-08-02T02:34:03;8.63;;;3.80;;
13743;SDS011;6943;52.368;9.966;2022-08-02T02:36:32;6.43;;;4.03;;
13743;SDS011;6943;52.368;9.966;2022-08-02T02:38:59;8.43;;;3.20;;
13743;SDS011;6943;52.368;9.966;2022-08-02T02:41:27;6.07;;;3.63;;
13743;SDS011;6943;52.368;9.966;2022-08-02T02:43:53;9.23;;;3.80;;
13743;SDS011;6943;52.368;9.966;2022-08-02T02:46:22;6.33;;;3.63;;
13743;SDS011;6943;52.368;9.966;2022-08-02T02:48:49;7.10;;;3.30;;
13743;SDS011;6943;52.368;9.966;2022-08-02T02:51:15;6.80;;;3.60;;
13743;SDS011;6943;52.368;9.966;2022-08-02T02:53:42;7.83;;;3.77;;
13743;SDS011;6943;52.368;9.966;2022-08-02T02:56:08;6.33;;;3.53;;
13743;SDS011;6943;52.368;9.966;2022-08-02T02:58:36;5.77;;;3.40;;
13743;SDS011;6943;52.368;9.966;2022-08-02T03:01:02;9.03;;;3.07;;
13743;SDS011;6943;52.368;9.966;2022-08-02T03:03:47;6.83;;;3.30;;
13743;SDS011;6943;52.368;9.966;2022-08-02T03:06:13;4.73;;;3.40;;
13743;SDS011;6943;52.368;9.966;2022-08-02T03:08:39;7.37;;;3.80;;
13743;SDS011;6943;52.368;9.966;2022-08-02T03:11:06;5.97;;;3.60;;
13743;SDS011;6943;52.368;9.966;2022-08-02T03:13:33;7.97;;;3.77;;
13743;SDS011;6943;52.368;9.966;2022-08-02T03:15:59;7.40;;;4.10;;
13743;SDS011;6943;52.368;9.966;2022-08-02T03:18:33;8.20;;;4.40;;
13743;SDS011;6943;52.368;9.966;2022-08-02T03:21:03;5.70;;;3.40;;
13743;SDS011;6943;52.368;9.966;2022-08-02T03:23:31;5.70;;;3.27;;
13743;SDS011;6943;52.368;9.966;2022-08-02T03:28:32;9.63;;;3.83;;
13743;SDS011;6943;52.368;9.966;2022-08-02T03:30:58;5.27;;;3.30;;
13743;SDS011;6943;52.368;9.966;2022-08-02T03:33:25;8.00;;;4.27;;
13743;SDS011;6943;52.368;9.966;2022-08-02T03:35:51;7.33;;;4.00;;
13743;SDS011;6943;52.368;9.966;2022-08-02T03:38:22;7.37;;;5.07;;
13743;SDS011;6943;52.368;9.966;2022-08-02T03:40:50;8.13;;;4.37;;
13743;SDS011;6943;52.368;9.966;2022-08-02T03:43:17;5.87;;;4.20;;
13743;SDS011;6943;52.368;9.966;2022-08-02T03:45:44;6.70;;;4.50;;
13743;SDS011;6943;52.368;9.966;2022-08-02T03:48:12;9.60;;;4.93;;
13743;SDS011;6943;52.368;9.966;2022-08-02T03:50:42;7.57;;;4.03;;
13743;SDS011;6943;52.368;9.966;2022-08-02T03:53:09;8.90;;;4.93;;
13743;SDS011;6943;52.368;9.966;2022-08-02T03:55:36;8.03;;;4.40;;
13743;SDS011;6943;52.368;9.966;2022-08-02T03:58:03;12.10;;;5.20;;
13743;SDS011;6943;52.368;9.966;2022-08-02T04:00:30;7.90;;;4.63;;
13743;SDS011;6943;52.368;9.966;2022-08-02T04:02:55;6.47;;;4.43;;
13743;SDS011;6943;52.368;9.966;2022-08-02T04:05:21;10.73;;;4.43;;
13743;SDS011;6943;52.368;9.966;2022-08-02T04:07:47;7.60;;;3.93;;
13743;SDS011;6943;52.368;9.966;2022-08-02T04:10:13;7.87;;;4.20;;
13743;SDS011;6943;52.368;9.966;2022-08-02T04:12:39;6.90;;;4.37;;
13743;SDS011;6943;52.368;9.966;2022-08-02T04:15:05;7.43;;;3.90;;
13743;SDS011;6943;52.368;9.966;2022-08-02T04:17:32;9.00;;;3.60;;
13743;SDS011;6943;52.368;9.966;2022-08-02T04:20:10;6.70;;;3.33;;
13743;SDS011;6943;52.368;9.966;2022-08-02T04:22:44;6.27;;;3.90;;
13743;SDS011;6943;52.368;9.966;2022-08-02T04:25:13;5.50;;;3.57;;
13743;SDS011;6943;52.368;9.966;2022-08-02T04:27:40;8.73;;;3.63;;
13743;SDS011;6943;52.368;9.966;2022-08-02T04:30:07;6.90;;;4.00;;
13743;SDS011;6943;52.368;9.966;2022-08-02T04:32:33;7.17;;;4.30;;
13743;SDS011;6943;52.368;9.966;2022-08-02T04:34:59;7.00;;;4.33;;
13743;SDS011;6943;52.368;9.966;2022-08-02T04:37:25;6.13;;;4.30;;
13743;SDS011;6943;52.368;9.966;2022-08-02T04:39:51;9.63;;;5.10;;
13743;SDS011;6943;52.368;9.966;2022-08-02T04:42:20;10.73;;;5.47;;
13743;SDS011;6943;52.368;9.966;2022-08-02T04:44:50;7.43;;;4.93;;
13743;SDS011;6943;52.368;9.966;2022-08-02T04:47:17;7.57;;;5.60;;
13743;SDS011;6943;52.368;9.966;2022-08-02T04:49:45;7.93;;;5.23;;
13743;SDS011;6943;52.368;9.966;2022-08-02T04:52:11;5.43;;;4.30;;
13743;SDS011;6943;52.368;9.966;2022-08-02T04:54:37;6.87;;;4.33;;
13743;SDS011;6943;52.368;9.966;2022-08-02T04:57:03;7.40;;;4.60;;
13743;SDS011;6943;52.368;9.966;2022-08-02T04:59:48;8.67;;;4.23;;
13743;SDS011;6943;52.368;9.966;2022-08-02T05:02:14;6.83;;;4.10;;
13743;SDS011;6943;52.368;9.966;2022-08-02T05:04:40;7.23;;;4.13;;
13743;SDS011;6943;52.368;9.966;2022-08-02T05:07:05;5.00;;;3.90;;
13743;SDS011;6943;52.368;9.966;2022-08-02T05:09:30;6.93;;;4.70;;
13743;SDS011;6943;52.368;9.966;2022-08-02T05:11:56;6.47;;;4.33;;
13743;SDS011;6943;52.368;9.966;2022-08-02T05:14:21;6.10;;;4.13;;
13743;SDS011;6943;52.368;9.966;2022-08-02T05:16:47;5.77;;;4.23;;
13743;SDS011;6943;52.368;9.966;2022-08-02T05:19:12;5.47;;;3.80;;
13743;SDS011;6943;52.368;9.966;2022-08-02T05:21:38;7.00;;;3.60;;
13743;SDS011;6943;52.368;9.966;2022-08-02T05:24:03;6.33;;;3.77;;
13743;SDS011;6943;52.368;9.966;2022-08-02T05:26:29;7.37;;;3.80;;
13743;SDS011;6943;52.368;9.966;2022-08-02T05:28:55;4.97;;;3.87;;
13743;SDS011;6943;52.368;9.966;2022-08-02T05:31:20;6.20;;;3.50;;
13743;SDS011;6943;52.368;9.966;2022-08-02T05:33:46;5.57;;;3.07;;
13743;SDS011;6943;52.368;9.966;2022-08-02T05:36:11;6.53;;;3.40;;
13743;SDS011;6943;52.368;9.966;2022-08-02T05:38:37;4.13;;;2.97;;
13743;SDS011;6943;52.368;9.966;2022-08-02T05:41:03;5.80;;;3.00;;
13743;SDS011;6943;52.368;9.966;2022-08-02T05:43:29;5.27;;;3.00;;
13743;SDS011;6943;52.368;9.966;2022-08-02T05:45:55;6.57;;;3.43;;
13743;SDS011;6943;52.368;9.966;2022-08-02T05:48:20;5.93;;;3.20;;
13743;SDS011;6943;52.368;9.966;2022-08-02T05:50:48;6.03;;;3.13;;
13743;SDS011;6943;52.368;9.966;2022-08-02T05:56:00;6.70;;;2.90;;
13743;SDS011;6943;52.368;9.966;2022-08-02T05:58:44;5.60;;;3.33;;
13743;SDS011;6943;52.368;9.966;2022-08-02T06:01:15;6.45;;;3.10;;
13743;SDS011;6943;52.368;9.966;2022-08-02T06:03:51;7.95;;;3.70;;
13743;SDS011;6943;52.368;9.966;2022-08-02T06:06:20;5.53;;;3.08;;
13743;SDS011;6943;52.368;9.966;2022-08-02T06:08:49;4.50;;;3.40;;
13743;SDS011;6943;52.368;9.966;2022-08-02T06:11:21;6.47;;;3.13;;
13743;SDS011;6943;52.368;9.966;2022-08-02T06:13:48;6.88;;;3.30;;
13743;SDS011;6943;52.368;9.966;2022-08-02T06:16:15;5.85;;;3.28;;
13743;SDS011;6943;52.368;9.966;2022-08-02T06:18:41;4.78;;;3.33;;
13743;SDS011;6943;52.368;9.966;2022-08-02T06:21:07;6.35;;;2.95;;
13743;SDS011;6943;52.368;9.966;2022-08-02T06:23:34;5.55;;;3.20;;
13743;SDS011;6943;52.368;9.966;2022-08-02T06:26:05;7.15;;;3.60;;
13743;SDS011;6943;52.368;9.966;2022-08-02T06:28:31;6.00;;;3.20;;
13743;SDS011;6943;52.368;9.966;2022-08-02T06:31:01;6.57;;;3.80;;
13743;SDS011;6943;52.368;9.966;2022-08-02T06:33:27;6.95;;;3.53;;
13743;SDS011;6943;52.368;9.966;2022-08-02T06:35:57;6.57;;;3.30;;
13743;SDS011;6943;52.368;9.966;2022-08-02T06:38:30;7.00;;;4.00;;
13743;SDS011;6943;52.368;9.966;2022-08-02T06:41:05;6.10;;;2.92;;
13743;SDS011;6943;52.368;9.966;2022-08-02T06:46:22;4.65;;;3.22;;
13743;SDS011;6943;52.368;9.966;2022-08-02T06:48:48;7.07;;;3.58;;
13743;SDS011;6943;52.368;9.966;2022-08-02T06:51:13;4.85;;;2.72;;
13743;SDS011;6943;52.368;9.966;2022-08-02T06:53:39;5.25;;;3.13;;
13743;SDS011;6943;52.368;9.966;2022-08-02T06:56:05;7.30;;;3.17;;
13743;SDS011;6943;52.368;9.966;2022-08-02T06:58:30;7.93;;;3.10;;
13743;SDS011;6943;52.368;9.966;2022-08-02T07:00:56;6.95;;;3.38;;
13743;SDS011;6943;52.368;9.966;2022-08-02T07:03:21;6.28;;;2.90;;
13743;SDS011;6943;52.368;9.966;2022-08-02T07:05:49;7.32;;;2.80;;
13743;SDS011;6943;52.368;9.966;2022-08-02T07:08:16;6.60;;;2.70;;
13743;SDS011;6943;52.368;9.966;2022-08-02T07:10:42;5.38;;;3.03;;
13743;SDS011;6943;52.368;9.966;2022-08-02T07:13:08;5.88;;;3.60;;
13743;SDS011;6943;52.368;9.966;2022-08-02T07:15:34;7.80;;;3.17;;
13743;SDS011;6943;52.368;9.966;2022-08-02T07:18:01;6.70;;;3.08;;
13743;SDS011;6943;52.368;9.966;2022-08-02T07:20:27;6.13;;;2.78;;
13743;SDS011;6943;52.368;9.966;2022-08-02T07:22:53;3.95;;;2.80;;
13743;SDS011;6943;52.368;9.966;2022-08-02T07:25:18;5.60;;;2.90;;
13743;SDS011;6943;52.368;9.966;2022-08-02T07:27:44;7.70;;;2.72;;
13743;SDS011;6943;52.368;9.966;2022-08-02T07:30:09;5.07;;;2.85;;
13743;SDS011;6943;52.368;9.966;2022-08-02T07:32:35;7.72;;;3.40;;
13743;SDS011;6943;52.368;9.966;2022-08-02T07:35:01;7.03;;;2.75;;
13743;SDS011;6943;52.368;9.966;2022-08-02T07:37:28;5.20;;;2.83;;
13743;SDS011;6943;52.368;9.966;2022-08-02T07:39:55;8.18;;;3.03;;
13743;SDS011;6943;52.368;9.966;2022-08-02T07:42:21;8.05;;;2.95;;
13743;SDS011;6943;52.368;9.966;2022-08-02T07:44:46;4.88;;;2.75;;
13743;SDS011;6943;52.368;9.966;2022-08-02T07:47:12;5.57;;;2.45;;
13743;SDS011;6943;52.368;9.966;2022-08-02T07:49:38;5.90;;;2.95;;
13743;SDS011;6943;52.368;9.966;2022-08-02T07:52:03;6.13;;;2.47;;
13743;SDS011;6943;52.368;9.966;2022-08-02T07:54:29;6.85;;;2.70;;
13743;SDS011;6943;52.368;9.966;2022-08-02T07:56:54;5.93;;;2.88;;
13743;SDS011;6943;52.368;9.966;2022-08-02T07:59:20;4.93;;;2.55;;
13743;SDS011;6943;52.368;9.966;2022-08-02T08:01:46;6.55;;;2.90;;
13743;SDS011;6943;52.368;9.966;2022-08-02T08:04:13;6.88;;;2.95;;
13743;SDS011;6943;52.368;9.966;2022-08-02T08:06:39;5.20;;;2.83;;
13743;SDS011;6943;52.368;9.966;2022-08-02T08:09:04;4.35;;;2.67;;
13743;SDS011;6943;52.368;9.966;2022-08-02T08:11:32;5.82;;;2.90;;
13743;SDS011;6943;52.368;9.966;2022-08-02T08:13:58;5.32;;;2.85;;
13743;SDS011;6943;52.368;9.966;2022-08-02T08:16:23;4.88;;;3.25;;
13743;SDS011;6943;52.368;9.966;2022-08-02T08:18:50;7.60;;;3.15;;
13743;SDS011;6943;52.368;9.966;2022-08-02T08:21:16;8.90;;;3.30;;
13743;SDS011;6943;52.368;9.966;2022-08-02T08:23:41;8.02;;;3.20;;
13743;SDS011;6943;52.368;9.966;2022-08-02T08:26:07;5.65;;;3.10;;
13743;SDS011;6943;52.368;9.966;2022-08-02T08:28:32;5.80;;;3.22;;
13743;SDS011;6943;52.368;9.966;2022-08-02T08:30:59;6.28;;;3.42;;
13743;SDS011;6943;52.368;9.966;2022-08-02T08:33:25;5.13;;;3.65;;
13743;SDS011;6943;52.368;9.966;2022-08-02T08:35:50;6.53;;;3.80;;
13743;SDS011;6943;52.368;9.966;2022-08-02T08:38:16;6.70;;;3.85;;
13743;SDS011;6943;52.368;9.966;2022-08-02T08:40:41;6.57;;;3.78;;
13743;SDS011;6943;52.368;9.966;2022-08-02T08:43:08;7.53;;;4.10;;
13743;SDS011;6943;52.368;9.966;2022-08-02T08:45:37;4.80;;;3.25;;
13743;SDS011;6943;52.368;9.966;2022-08-02T08:48:06;6.60;;;3.22;;
13743;SDS011;6943;52.368;9.966;2022-08-02T08:50:38;6.38;;;3.53;;
13743;SDS011;6943;52.368;9.966;2022-08-02T08:53:11;5.70;;;3.88;;
13743;SDS011;6943;52.368;9.966;2022-08-02T08:55:38;5.20;;;3.13;;
13743;SDS011;6943;52.368;9.966;2022-08-02T08:58:04;5.15;;;2.90;;
13743;SDS011;6943;52.368;9.966;2022-08-02T09:00:31;5.20;;;2.83;;
13743;SDS011;6943;52.368;9.966;2022-08-02T09:02:58;4.65;;;2.80;;
13743;SDS011;6943;52.368;9.966;2022-08-02T09:05:27;7.13;;;3.42;;
13743;SDS011;6943;52.368;9.966;2022-08-02T09:07:52;4.40;;;2.60;;
13743;SDS011;6943;52.368;9.966;2022-08-02T09:13:20;6.65;;;2.90;;
13743;SDS011;6943;52.368;9.966;2022-08-02T09:18:19;3.83;;;2.78;;
13743;SDS011;6943;52.368;9.966;2022-08-02T09:20:54;6.85;;;2.90;;
13743;SDS011;6943;52.368;9.966;2022-08-02T09:23:22;3.95;;;2.70;;
13743;SDS011;6943;52.368;9.966;2022-08-02T09:25:55;8.43;;;3.05;;
13743;SDS011;6943;52.368;9.966;2022-08-02T09:28:29;5.05;;;2.50;;
13743;SDS011;6943;52.368;9.966;2022-08-02T09:30:56;4.20;;;2.65;;
13743;SDS011;6943;52.368;9.966;2022-08-02T09:33:37;5.68;;;2.70;;
13743;SDS011;6943;52.368;9.966;2022-08-02T09:36:05;5.30;;;2.83;;
13743;SDS011;6943;52.368;9.966;2022-08-02T09:38:32;5.30;;;3.10;;
13743;SDS011;6943;52.368;9.966;2022-08-02T09:40:59;5.15;;;2.92;;
13743;SDS011;6943;52.368;9.966;2022-08-02T09:43:38;4.95;;;2.95;;
13743;SDS011;6943;52.368;9.966;2022-08-02T09:46:09;4.25;;;3.05;;
13743;SDS011;6943;52.368;9.966;2022-08-02T09:48:37;5.20;;;2.65;;
13743;SDS011;6943;52.368;9.966;2022-08-02T09:53:51;4.72;;;2.90;;
13743;SDS011;6943;52.368;9.966;2022-08-02T09:56:22;4.95;;;3.20;;
13743;SDS011;6943;52.368;9.966;2022-08-02T09:58:50;5.72;;;3.10;;
13743;SDS011;6943;52.368;9.966;2022-08-02T10:01:19;5.40;;;2.95;;
13743;SDS011;6943;52.368;9.966;2022-08-02T10:03:55;6.90;;;3.67;;
13743;SDS011;6943;52.368;9.966;2022-08-02T10:06:23;7.38;;;3.20;;
13743;SDS011;6943;52.368;9.966;2022-08-02T10:08:49;6.50;;;3.33;;
13743;SDS011;6943;52.368;9.966;2022-08-02T10:11:17;5.95;;;3.28;;
13743;SDS011;6943;52.368;9.966;2022-08-02T10:13:46;6.93;;;3.50;;
13743;SDS011;6943;52.368;9.966;2022-08-02T10:16:13;7.50;;;3.10;;
13743;SDS011;6943;52.368;9.966;2022-08-02T10:18:40;4.28;;;2.80;;
13743;SDS011;6943;52.368;9.966;2022-08-02T10:21:11;3.22;;;3.00;;
13743;SDS011;6943;52.368;9.966;2022-08-02T10:23:39;5.03;;;3.30;;
13743;SDS011;6943;52.368;9.966;2022-08-02T10:26:07;3.60;;;2.90;;
13743;SDS011;6943;52.368;9.966;2022-08-02T10:28:33;3.33;;;2.88;;
13743;SDS011;6943;52.368;9.966;2022-08-02T10:31:00;3.97;;;2.92;;
13743;SDS011;6943;52.368;9.966;2022-08-02T10:33:29;4.82;;;3.00;;
13743;SDS011;6943;52.368;9.966;2022-08-02T10:35:58;4.07;;;3.00;;
13743;SDS011;6943;52.368;9.966;2022-08-02T10:38:25;5.38;;;3.10;;
13743;SDS011;6943;52.368;9.966;2022-08-02T10:40:52;4.20;;;2.83;;
13743;SDS011;6943;52.368;9.966;2022-08-02T10:46:19;3.75;;;2.60;;
13743;SDS011;6943;52.368;9.966;2022-08-02T10:56:55;5.47;;;3.08;;
13743;SDS011;6943;52.368;9.966;2022-08-02T10:59:23;4.30;;;2.63;;
13743;SDS011;6943;52.368;9.966;2022-08-02T11:01:50;3.40;;;3.10;;
13743;SDS011;6943;52.368;9.966;2022-08-02T11:04:17;4.57;;;2.72;;
13743;SDS011;6943;52.368;9.966;2022-08-02T11:09:33;3.20;;;2.85;;
13743;SDS011;6943;52.368;9.966;2022-08-02T11:12:06;4.40;;;3.10;;
13743;SDS011;6943;52.368;9.966;2022-08-02T11:14:36;4.18;;;2.95;;
13743;SDS011;6943;52.368;9.966;2022-08-02T11:17:04;3.20;;;3.00;;
13743;SDS011;6943;52.368;9.966;2022-08-02T11:19:31;2.95;;;2.75;;
13743;SDS011;6943;52.368;9.966;2022-08-02T11:24:29;3.25;;;2.85;;
13743;SDS011;6943;52.368;9.966;2022-08-02T11:26:59;4.10;;;2.90;;
13743;SDS011;6943;52.368;9.966;2022-08-02T11:29:33;3.40;;;3.00;;
13743;SDS011;6943;52.368;9.966;2022-08-02T11:31:59;3.53;;;3.17;;
13743;SDS011;6943;52.368;9.966;2022-08-02T11:34:25;4.50;;;2.92;;
13743;SDS011;6943;52.368;9.966;2022-08-02T11:36:51;3.22;;;2.70;;
13743;SDS011;6943;52.368;9.966;2022-08-02T11:39:18;3.80;;;2.42;;
13743;SDS011;6943;52.368;9.966;2022-08-02T11:41:48;2.58;;;2.25;;
13743;SDS011;6943;52.368;9.966;2022-08-02T11:44:18;4.55;;;2.40;;
13743;SDS011;6943;52.368;9.966;2022-08-02T11:46:44;3.05;;;2.50;;
13743;SDS011;6943;52.368;9.966;2022-08-02T11:49:17;2.88;;;2.45;;
13743;SDS011;6943;52.368;9.966;2022-08-02T11:51:59;6.22;;;2.50;;
13743;SDS011;6943;52.368;9.966;2022-08-02T11:54:30;3.47;;;2.70;;
13743;SDS011;6943;52.368;9.966;2022-08-02T11:59:45;4.63;;;2.67;;
13743;SDS011;6943;52.368;9.966;2022-08-02T12:02:13;2.63;;;2.40;;
13743;SDS011;6943;52.368;9.966;2022-08-02T12:04:40;4.22;;;2.50;;
13743;SDS011;6943;52.368;9.966;2022-08-02T12:07:06;4.53;;;2.20;;
13743;SDS011;6943;52.368;9.966;2022-08-02T12:09:33;2.33;;;2.00;;
13743;SDS011;6943;52.368;9.966;2022-08-02T12:11:59;4.10;;;2.55;;
13743;SDS011;6943;52.368;9.966;2022-08-02T12:14:27;4.72;;;2.40;;
13743;SDS011;6943;52.368;9.966;2022-08-02T12:16:54;4.95;;;2.38;;
13743;SDS011;6943;52.368;9.966;2022-08-02T12:19:38;4.40;;;2.33;;
13743;SDS011;6943;52.368;9.966;2022-08-02T12:24:31;2.67;;;2.00;;
13743;SDS011;6943;52.368;9.966;2022-08-02T12:26:57;4.30;;;2.10;;
13743;SDS011;6943;52.368;9.966;2022-08-02T12:29:36;4.20;;;2.00;;
13743;SDS011;6943;52.368;9.966;2022-08-02T12:32:04;2.50;;;2.05;;
13743;SDS011;6943;52.368;9.966;2022-08-02T12:34:31;4.20;;;1.80;;
13743;SDS011;6943;52.368;9.966;2022-08-02T12:37:02;1.88;;;1.77;;
13743;SDS011;6943;52.368;9.966;2022-08-02T12:39:42;3.53;;;2.10;;
13743;SDS011;6943;52.368;9.966;2022-08-02T12:42:10;4.15;;;1.92;;
13743;SDS011;6943;52.368;9.966;2022-08-02T12:47:17;1.83;;;1.70;;
13743;SDS011;6943;52.368;9.966;2022-08-02T12:49:42;4.00;;;1.80;;
13743;SDS011;6943;52.368;9.966;2022-08-02T12:52:18;1.80;;;1.70;;
13743;SDS011;6943;52.368;9.966;2022-08-02T12:54:47;2.72;;;1.80;;
13743;SDS011;6943;52.368;9.966;2022-08-02T12:57:14;3.80;;;2.03;;
13743;SDS011;6943;52.368;9.966;2022-08-02T12:59:41;1.88;;;1.65;;
13743;SDS011;6943;52.368;9.966;2022-08-02T13:02:12;6.68;;;1.75;;
13743;SDS011;6943;52.368;9.966;2022-08-02T13:04:40;2.40;;;1.70;;
13743;SDS011;6943;52.368;9.966;2022-08-02T13:07:06;4.40;;;1.80;;
13743;SDS011;6943;52.368;9.966;2022-08-02T13:09:36;3.28;;;1.70;;
13743;SDS011;6943;52.368;9.966;2022-08-02T13:12:03;1.92;;;1.73;;
13743;SDS011;6943;52.368;9.966;2022-08-02T13:14:30;3.35;;;1.60;;
13743;SDS011;6943;52.368;9.966;2022-08-02T13:16:56;2.53;;;1.90;;
13743;SDS011;6943;52.368;9.966;2022-08-02T13:19:22;2.78;;;1.52;;
13743;SDS011;6943;52.368;9.966;2022-08-02T13:21:47;2.85;;;1.65;;
13743;SDS011;6943;52.368;9.966;2022-08-02T13:24:13;3.08;;;1.80;;
13743;SDS011;6943;52.368;9.966;2022-08-02T13:26:40;2.35;;;1.75;;
13743;SDS011;6943;52.368;9.966;2022-08-02T13:29:09;1.98;;;1.70;;
13743;SDS011;6943;52.368;9.966;2022-08-02T13:31:36;1.70;;;1.52;;
13743;SDS011;6943;52.368;9.966;2022-08-02T13:34:06;3.22;;;1.63;;
13743;SDS011;6943;52.368;9.966;2022-08-02T13:36:33;3.25;;;2.28;;
13743;SDS011;6943;52.368;9.966;2022-08-02T13:39:00;3.00;;;2.25;;
13743;SDS011;6943;52.368;9.966;2022-08-02T13:41:28;3.05;;;1.70;;
13743;SDS011;6943;52.368;9.966;2022-08-02T13:43:54;3.15;;;1.83;;
13743;SDS011;6943;52.368;9.966;2022-08-02T13:46:20;2.55;;;2.00;;
13743;SDS011;6943;52.368;9.966;2022-08-02T13:48:45;2.17;;;1.80;;
13743;SDS011;6943;52.368;9.966;2022-08-02T13:51:11;1.75;;;1.65;;
13743;SDS011;6943;52.368;9.966;2022-08-02T13:53:37;2.20;;;1.67;;
13743;SDS011;6943;52.368;9.966;2022-08-02T13:56:03;3.72;;;2.00;;
13743;SDS011;6943;52.368;9.966;2022-08-02T13:58:29;2.67;;;1.70;;
13743;SDS011;6943;52.368;9.966;2022-08-02T14:00:54;2.72;;;1.80;;
13743;SDS011;6943;52.368;9.966;2022-08-02T14:03:19;5.13;;;2.20;;
13743;SDS011;6943;52.368;9.966;2022-08-02T14:05:45;2.60;;;1.65;;
13743;SDS011;6943;52.368;9.966;2022-08-02T14:08:11;3.92;;;1.65;;
13743;SDS011;6943;52.368;9.966;2022-08-02T14:10:36;2.22;;;1.90;;
13743;SDS011;6943;52.368;9.966;2022-08-02T14:13:03;2.20;;;2.00;;
13743;SDS011;6943;52.368;9.966;2022-08-02T14:15:28;2.20;;;1.75;;
13743;SDS011;6943;52.368;9.966;2022-08-02T14:17:54;2.45;;;1.90;;
13743;SDS011;6943;52.368;9.966;2022-08-02T14:20:19;1.77;;;1.67;;
13743;SDS011;6943;52.368;9.966;2022-08-02T14:22:45;5.35;;;2.03;;
13743;SDS011;6943;52.368;9.966;2022-08-02T14:25:10;5.10;;;2.33;;
13743;SDS011;6943;52.368;9.966;2022-08-02T14:27:36;3.97;;;2.25;;
13743;SDS011;6943;52.368;9.966;2022-08-02T14:30:02;3.45;;;2.08;;
13743;SDS011;6943;52.368;9.966;2022-08-02T14:32:28;2.63;;;2.00;;
13743;SDS011;6943;52.368;9.966;2022-08-02T14:34:53;2.08;;;1.88;;
13743;SDS011;6943;52.368;9.966;2022-08-02T14:37:19;3.00;;;1.90;;
13743;SDS011;6943;52.368;9.966;2022-08-02T14:39:44;2.35;;;1.90;;
13743;SDS011;6943;52.368;9.966;2022-08-02T14:42:10;4.93;;;1.73;;
13743;SDS011;6943;52.368;9.966;2022-08-02T14:44:36;2.53;;;2.05;;
13743;SDS011;6943;52.368;9.966;2022-08-02T14:47:02;2.42;;;2.05;;
13743;SDS011;6943;52.368;9.966;2022-08-02T14:49:30;3.05;;;2.10;;
13743;SDS011;6943;52.368;9.966;2022-08-02T14:51:56;2.47;;;2.08;;
13743;SDS011;6943;52.368;9.966;2022-08-02T14:54:22;2.00;;;1.83;;
13743;SDS011;6943;52.368;9.966;2022-08-02T14:56:51;2.50;;;2.10;;
13743;SDS011;6943;52.368;9.966;2022-08-02T14:59:17;2.17;;;1.90;;
13743;SDS011;6943;52.368;9.966;2022-08-02T15:01:42;2.45;;;2.25;;
13743;SDS011;6943;52.368;9.966;2022-08-02T15:04:08;2.63;;;2.15;;
13743;SDS011;6943;52.368;9.966;2022-08-02T15:06:33;2.17;;;2.08;;
13743;SDS011;6943;52.368;9.966;2022-08-02T15:08:59;3.90;;;2.22;;
13743;SDS011;6943;52.368;9.966;2022-08-02T15:11:24;2.97;;;2.20;;
13743;SDS011;6943;52.368;9.966;2022-08-02T15:13:53;3.42;;;2.50;;
13743;SDS011;6943;52.368;9.966;2022-08-02T15:16:19;3.97;;;2.45;;
13743;SDS011;6943;52.368;9.966;2022-08-02T15:18:44;2.22;;;1.85;;
13743;SDS011;6943;52.368;9.966;2022-08-02T15:21:10;2.65;;;2.25;;
13743;SDS011;6943;52.368;9.966;2022-08-02T15:23:38;2.38;;;2.10;;
13743;SDS011;6943;52.368;9.966;2022-08-02T15:26:04;2.33;;;2.13;;
13743;SDS011;6943;52.368;9.966;2022-08-02T15:28:30;3.65;;;2.10;;
13743;SDS011;6943;52.368;9.966;2022-08-02T15:30:56;2.72;;;2.08;;
13743;SDS011;6943;52.368;9.966;2022-08-02T15:33:22;3.72;;;2.28;;
13743;SDS011;6943;52.368;9.966;2022-08-02T15:35:48;2.78;;;2.25;;
13743;SDS011;6943;52.368;9.966;2022-08-02T15:38:14;2.47;;;2.28;;
13743;SDS011;6943;52.368;9.966;2022-08-02T15:40:40;3.22;;;1.98;;
13743;SDS011;6943;52.368;9.966;2022-08-02T15:43:07;2.55;;;2.35;;
13743;SDS011;6943;52.368;9.966;2022-08-02T15:45:33;2.78;;;2.30;;
13743;SDS011;6943;52.368;9.966;2022-08-02T15:47:59;2.75;;;2.00;;
13743;SDS011;6943;52.368;9.966;2022-08-02T15:50:25;2.95;;;2.65;;
13743;SDS011;6943;52.368;9.966;2022-08-02T15:52:50;2.70;;;2.28;;
13743;SDS011;6943;52.368;9.966;2022-08-02T15:55:16;2.33;;;1.90;;
13743;SDS011;6943;52.368;9.966;2022-08-02T15:57:41;3.65;;;2.17;;